createdAt,value
2019-05-09T00:00:47.043Z,0.00
2019-05-09T00:01:47.009Z,0.00
2019-05-09T00:02:46.969Z,0.00
2019-05-09T00:03:47.023Z,0.00
2019-05-09T00:04:46.911Z,0.00
2019-05-09T00:05:46.881Z,0.00
2019-05-09T00:06:47.498Z,0.00
2019-05-09T00:07:46.873Z,0.00
2019-05-09T00:08:46.785Z,0.00
2019-05-09T00:09:46.743Z,0.00
2019-05-09T00:10:46.715Z,0.00
2019-05-09T00:11:46.694Z,0.00
2019-05-09T00:12:46.652Z,0.00
2019-05-09T00:13:46.615Z,0.00
2019-05-09T00:14:46.583Z,0.00
2019-05-09T00:15:46.581Z,0.00
2019-05-09T00:16:46.531Z,0.00
2019-05-09T00:17:46.484Z,0.00
2019-05-09T00:18:46.454Z,0.00
2019-05-09T00:19:46.425Z,0.00
2019-05-09T00:20:46.395Z,0.00
2019-05-09T00:21:46.352Z,0.00
2019-05-09T00:22:46.329Z,0.00
2019-05-09T00:23:46.294Z,0.00
2019-05-09T00:24:46.258Z,0.00
2019-05-09T00:25:46.226Z,0.00
2019-05-09T00:26:46.195Z,0.00
2019-05-09T00:27:46.161Z,0.00
2019-05-09T00:28:46.124Z,0.00
2019-05-09T00:29:46.092Z,0.00
2019-05-09T00:30:46.064Z,0.00
2019-05-09T00:31:46.031Z,0.00
2019-05-09T00:32:45.995Z,0.00
2019-05-09T00:33:48.064Z,0.00
2019-05-09T00:34:45.978Z,0.00
2019-05-09T00:35:45.896Z,0.00
2019-05-09T00:36:45.863Z,0.00
2019-05-09T00:37:45.832Z,0.00
2019-05-09T00:38:45.860Z,0.00
2019-05-09T00:39:45.777Z,0.00
2019-05-09T00:40:55.286Z,0.00
2019-05-09T00:41:45.700Z,0.00
2019-05-09T00:42:45.667Z,0.00
2019-05-09T00:43:45.635Z,0.00
2019-05-09T00:44:45.608Z,0.00
2019-05-09T00:45:45.575Z,0.00
2019-05-09T00:46:45.541Z,0.00
2019-05-09T00:47:45.506Z,0.00
2019-05-09T00:48:45.471Z,0.00
2019-05-09T00:49:45.442Z,0.00
2019-05-09T00:50:45.410Z,0.00
2019-05-09T00:51:45.371Z,0.00
2019-05-09T00:52:45.344Z,0.00
2019-05-09T00:53:45.302Z,0.00
2019-05-09T00:54:45.275Z,0.00
2019-05-09T00:55:45.241Z,0.00
2019-05-09T00:56:45.212Z,0.00
2019-05-09T00:57:45.177Z,0.00
2019-05-09T00:58:45.161Z,0.00
2019-05-09T00:59:45.111Z,0.00
2019-05-09T01:00:45.077Z,0.00
2019-05-09T01:01:45.051Z,0.00
2019-05-09T01:02:45.012Z,0.00
2019-05-09T01:03:44.973Z,0.00
2019-05-09T01:04:44.948Z,0.00
2019-05-09T01:05:47.473Z,0.00
2019-05-09T01:06:44.882Z,0.00
2019-05-09T01:07:44.856Z,0.00
2019-05-09T01:08:44.820Z,0.00
2019-05-09T01:09:44.788Z,0.00
2019-05-09T01:10:44.751Z,0.00
2019-05-09T01:11:44.731Z,0.00
2019-05-09T01:12:44.685Z,0.00
2019-05-09T01:13:44.647Z,0.00
2019-05-09T01:14:44.617Z,0.00
2019-05-09T01:15:44.591Z,0.00
2019-05-09T01:16:44.561Z,0.00
2019-05-09T01:17:44.519Z,0.00
2019-05-09T01:18:44.489Z,0.00
2019-05-09T01:19:44.457Z,0.00
2019-05-09T01:20:44.426Z,0.00
2019-05-09T01:21:44.391Z,0.00
2019-05-09T01:22:44.364Z,0.00
2019-05-09T01:23:44.324Z,0.00
2019-05-09T01:24:44.371Z,0.00
2019-05-09T01:25:44.262Z,0.00
2019-05-09T01:26:44.234Z,0.00
2019-05-09T01:27:44.198Z,0.00
2019-05-09T01:28:44.339Z,0.00
2019-05-09T01:29:44.132Z,0.00
2019-05-09T01:30:44.113Z,0.00
2019-05-09T01:31:44.073Z,0.00
2019-05-09T01:32:44.037Z,0.00
2019-05-09T01:33:44.052Z,0.00
2019-05-09T01:34:43.969Z,0.00
2019-05-09T01:35:43.960Z,0.00
2019-05-09T01:36:43.897Z,0.00
2019-05-09T01:37:43.865Z,0.00
2019-05-09T01:38:43.839Z,0.00
2019-05-09T01:39:44.123Z,0.00
2019-05-09T01:40:43.993Z,0.00
2019-05-09T01:41:43.741Z,0.00
2019-05-09T01:42:43.702Z,0.00
2019-05-09T01:43:44.306Z,0.00
2019-05-09T01:44:44.129Z,0.00
2019-05-09T01:45:45.279Z,0.00
2019-05-09T01:46:43.702Z,0.00
2019-05-09T01:47:43.547Z,0.00
2019-05-09T01:48:43.558Z,0.00
2019-05-09T01:49:43.476Z,0.00
2019-05-09T01:50:43.442Z,0.00
2019-05-09T01:51:44.505Z,0.00
2019-05-09T01:52:43.866Z,0.00
2019-05-09T01:53:43.774Z,0.00
2019-05-09T01:54:43.602Z,0.00
2019-05-09T01:55:43.318Z,0.00
2019-05-09T01:56:43.246Z,0.00
2019-05-09T01:57:47.248Z,0.00
2019-05-09T01:58:43.277Z,0.00
2019-05-09T01:59:44.377Z,0.00
2019-05-09T02:00:43.646Z,0.00
2019-05-09T02:01:43.502Z,0.00
2019-05-09T02:02:43.366Z,0.00
2019-05-09T02:03:44.332Z,0.00
2019-05-09T02:04:43.950Z,0.00
2019-05-09T02:05:43.508Z,0.00
2019-05-09T02:06:44.035Z,0.00
2019-05-09T02:07:43.854Z,0.00
2019-05-09T02:08:43.838Z,0.00
2019-05-09T02:09:43.469Z,0.00
2019-05-09T02:10:44.154Z,0.00
2019-05-09T02:11:45.419Z,0.00
2019-05-09T02:12:43.108Z,0.00
2019-05-09T02:13:44.218Z,0.00
2019-05-09T02:14:43.731Z,0.00
2019-05-09T02:15:43.443Z,0.00
2019-05-09T02:16:43.247Z,0.00
2019-05-09T02:17:55.848Z,0.00
2019-05-09T02:18:44.068Z,0.00
2019-05-09T02:19:43.976Z,0.00
2019-05-09T02:20:43.903Z,0.00
2019-05-09T02:21:43.722Z,0.00
2019-05-09T02:22:43.484Z,0.00
2019-05-09T02:23:43.182Z,0.00
2019-05-09T02:24:44.080Z,0.00
2019-05-09T02:25:43.798Z,0.00
2019-05-09T02:26:43.904Z,0.00
2019-05-09T02:27:43.675Z,0.00
2019-05-09T02:28:43.236Z,0.00
2019-05-09T02:29:43.986Z,0.00
2019-05-09T02:30:44.990Z,0.00
2019-05-09T02:31:44.564Z,0.00
2019-05-09T02:32:44.753Z,0.00
2019-05-09T02:33:45.296Z,0.00
2019-05-09T02:34:44.293Z,0.00
2019-05-09T02:35:56.279Z,0.00
2019-05-09T02:36:41.929Z,0.00
2019-05-09T02:37:41.900Z,0.00
2019-05-09T02:38:41.868Z,0.00
2019-05-09T02:39:41.829Z,0.00
2019-05-09T02:40:41.803Z,0.00
2019-05-09T02:41:59.559Z,0.00
2019-05-09T02:42:41.738Z,0.00
2019-05-09T02:43:41.695Z,0.00
2019-05-09T02:44:41.662Z,0.00
2019-05-09T02:45:41.629Z,0.00
2019-05-09T02:46:41.598Z,0.00
2019-05-09T02:47:41.559Z,0.00
2019-05-09T02:48:41.537Z,0.00
2019-05-09T02:49:41.488Z,0.00
2019-05-09T02:50:41.466Z,0.00
2019-05-09T02:51:41.425Z,0.00
2019-05-09T02:52:41.401Z,0.00
2019-05-09T02:53:41.367Z,0.00
2019-05-09T02:54:41.334Z,0.00
2019-05-09T02:55:41.296Z,0.00
2019-05-09T02:56:41.255Z,0.00
2019-05-09T02:57:41.226Z,0.00
2019-05-09T02:58:41.192Z,0.00
2019-05-09T02:59:41.158Z,0.00
2019-05-09T03:00:41.129Z,0.00
2019-05-09T03:01:41.096Z,0.00
2019-05-09T03:02:41.065Z,0.00
2019-05-09T03:03:41.036Z,0.00
2019-05-09T03:04:40.993Z,0.00
2019-05-09T03:05:40.962Z,0.00
2019-05-09T03:06:40.925Z,0.00
2019-05-09T03:07:40.897Z,0.00
2019-05-09T03:08:40.857Z,0.00
2019-05-09T03:09:40.825Z,0.00
2019-05-09T03:10:40.797Z,0.00
2019-05-09T03:11:40.779Z,0.00
2019-05-09T03:12:40.728Z,0.00
2019-05-09T03:13:40.694Z,0.00
2019-05-09T03:14:40.686Z,0.00
2019-05-09T03:15:40.625Z,0.00
2019-05-09T03:16:40.591Z,0.00
2019-05-09T03:17:40.581Z,0.00
2019-05-09T03:18:40.528Z,0.00
2019-05-09T03:19:40.493Z,0.00
2019-05-09T03:20:40.459Z,4.00
2019-05-09T03:21:40.433Z,4.00
2019-05-09T03:22:40.415Z,4.00
2019-05-09T03:23:40.378Z,0.00
2019-05-09T03:24:40.355Z,4.00
2019-05-09T03:25:41.102Z,4.00
2019-05-09T03:26:40.259Z,4.00
2019-05-09T03:27:40.230Z,8.00
2019-05-09T03:28:40.190Z,4.00
2019-05-09T03:29:40.161Z,8.00
2019-05-09T03:30:40.123Z,8.00
2019-05-09T03:31:40.096Z,8.00
2019-05-09T03:32:40.063Z,12.00
2019-05-09T03:33:40.883Z,12.00
2019-05-09T03:34:39.992Z,16.00
2019-05-09T03:35:39.962Z,20.00
2019-05-09T03:36:39.932Z,24.00
2019-05-09T03:37:39.898Z,24.00
2019-05-09T03:38:39.862Z,28.00
2019-05-09T03:39:39.823Z,32.00
2019-05-09T03:40:39.788Z,40.00
2019-05-09T03:41:39.755Z,44.00
2019-05-09T03:42:43.638Z,48.00
2019-05-09T03:43:39.689Z,56.00
2019-05-09T03:44:39.654Z,60.00
2019-05-09T03:45:39.621Z,68.00
2019-05-09T03:46:39.595Z,80.00
2019-05-09T03:47:39.557Z,88.00
2019-05-09T03:48:39.522Z,96.00
2019-05-09T03:49:39.491Z,108.00
2019-05-09T03:50:39.457Z,120.00
2019-05-09T03:51:39.420Z,132.00
2019-05-09T03:52:39.387Z,144.00
2019-05-09T03:53:39.349Z,156.00
2019-05-09T03:54:39.328Z,172.00
2019-05-09T03:55:39.290Z,188.00
2019-05-09T03:56:39.262Z,204.00
2019-05-09T03:57:39.222Z,220.00
2019-05-09T03:58:39.193Z,236.00
2019-05-09T03:59:39.148Z,256.00
2019-05-09T04:00:39.121Z,272.00
2019-05-09T04:01:39.085Z,288.00
2019-05-09T04:02:39.057Z,312.00
2019-05-09T04:03:39.019Z,332.00
2019-05-09T04:04:38.983Z,352.00
2019-05-09T04:05:38.963Z,376.00
2019-05-09T04:06:39.294Z,392.00
2019-05-09T04:07:38.880Z,420.00
2019-05-09T04:08:38.850Z,444.00
2019-05-09T04:09:39.745Z,464.00
2019-05-09T04:10:38.793Z,492.00
2019-05-09T04:11:38.748Z,516.00
2019-05-09T04:12:52.730Z,544.00
2019-05-09T04:13:38.676Z,572.00
2019-05-09T04:14:38.652Z,596.00
2019-05-09T04:15:38.619Z,628.00
2019-05-09T04:16:38.583Z,652.00
2019-05-09T04:17:38.549Z,680.00
2019-05-09T04:18:40.309Z,712.00
2019-05-09T04:19:40.533Z,744.00
2019-05-09T04:20:38.451Z,780.00
2019-05-09T04:21:38.471Z,816.00
2019-05-09T04:22:38.635Z,848.00
2019-05-09T04:23:38.360Z,884.00
2019-05-09T04:24:38.394Z,924.00
2019-05-09T04:25:38.282Z,948.00
2019-05-09T04:26:38.246Z,968.00
2019-05-09T04:27:38.282Z,992.00
2019-05-09T04:28:39.887Z,1012.00
2019-05-09T04:29:38.150Z,1028.00
2019-05-09T04:30:38.124Z,1048.00
2019-05-09T04:31:38.440Z,1068.00
2019-05-09T04:32:38.048Z,1088.00
2019-05-09T04:33:38.378Z,1120.00
2019-05-09T04:34:38.241Z,1140.00
2019-05-09T04:35:38.315Z,1164.00
2019-05-09T04:36:37.914Z,1192.00
2019-05-09T04:37:38.070Z,1220.00
2019-05-09T04:38:39.935Z,1252.00
2019-05-09T04:39:38.716Z,1264.00
2019-05-09T04:40:44.599Z,1280.00
2019-05-09T04:41:38.523Z,1260.00
2019-05-09T04:42:42.801Z,1288.00
2019-05-09T04:43:39.600Z,1324.00
2019-05-09T04:44:37.642Z,1364.00
2019-05-09T04:45:40.826Z,1384.00
2019-05-09T04:46:37.824Z,1408.00
2019-05-09T04:47:39.383Z,1424.00
2019-05-09T04:48:37.744Z,1444.00
2019-05-09T04:49:41.106Z,1480.00
2019-05-09T04:50:37.702Z,1492.00
2019-05-09T04:51:39.334Z,1512.00
2019-05-09T04:52:39.821Z,1532.00
2019-05-09T04:53:39.791Z,1560.00
2019-05-09T04:54:38.460Z,1576.00
2019-05-09T04:55:37.671Z,1616.00
2019-05-09T04:56:38.193Z,1620.00
2019-05-09T04:57:38.270Z,1644.00
2019-05-09T04:58:37.695Z,1652.00
2019-05-09T04:59:37.470Z,1676.00
2019-05-09T05:00:37.709Z,1704.00
2019-05-09T05:01:38.965Z,1708.00
2019-05-09T05:02:38.025Z,1720.00
2019-05-09T05:03:37.616Z,1672.00
2019-05-09T05:04:37.435Z,1704.00
2019-05-09T05:05:37.175Z,1760.00
2019-05-09T05:06:40.354Z,1784.00
2019-05-09T05:07:37.626Z,1800.00
2019-05-09T05:08:37.520Z,1812.00
2019-05-09T05:09:37.967Z,1824.00
2019-05-09T05:10:37.354Z,1836.00
2019-05-09T05:11:38.358Z,1848.00
2019-05-09T05:12:38.085Z,1852.00
2019-05-09T05:13:38.328Z,1868.00
2019-05-09T05:14:38.454Z,1864.00
2019-05-09T05:15:37.790Z,1872.00
2019-05-09T05:16:39.221Z,1884.00
2019-05-09T05:17:37.766Z,1920.00
2019-05-09T05:18:37.418Z,1932.00
2019-05-09T05:19:38.339Z,1964.00
2019-05-09T05:20:37.987Z,1996.00
2019-05-09T05:21:37.808Z,2016.00
2019-05-09T05:22:38.535Z,2076.00
2019-05-09T05:23:38.091Z,2096.00
2019-05-09T05:24:38.146Z,2132.00
2019-05-09T05:25:38.196Z,2196.00
2019-05-09T05:26:38.036Z,2276.00
2019-05-09T05:27:38.222Z,2392.00
2019-05-09T05:28:38.122Z,2588.00
2019-05-09T05:29:38.176Z,2632.00
2019-05-09T05:30:37.362Z,2728.00
2019-05-09T05:31:36.074Z,2776.00
2019-05-09T05:32:38.454Z,2712.00
2019-05-09T05:33:38.175Z,2564.00
2019-05-09T05:34:37.771Z,2472.00
2019-05-09T05:35:37.584Z,2408.00
2019-05-09T05:36:38.239Z,2396.00
2019-05-09T05:37:38.416Z,2404.00
2019-05-09T05:38:37.676Z,2428.00
2019-05-09T05:39:37.519Z,2516.00
2019-05-09T05:40:43.695Z,2616.00
2019-05-09T05:41:37.810Z,2684.00
2019-05-09T05:42:38.549Z,2728.00
2019-05-09T05:43:43.319Z,2776.00
2019-05-09T05:44:35.647Z,2840.00
2019-05-09T05:45:37.497Z,2948.00
2019-05-09T05:46:37.812Z,3008.00
2019-05-09T05:47:37.802Z,3040.00
2019-05-09T05:48:35.511Z,3108.00
2019-05-09T05:49:35.495Z,3172.00
2019-05-09T05:50:35.451Z,3148.00
2019-05-09T05:51:35.420Z,3000.00
2019-05-09T05:52:37.408Z,2984.00
2019-05-09T05:53:35.459Z,2904.00
2019-05-09T05:54:37.661Z,2816.00
2019-05-09T05:55:37.809Z,2760.00
2019-05-09T05:56:35.258Z,2760.00
2019-05-09T05:57:35.231Z,2740.00
2019-05-09T05:58:35.187Z,2768.00
2019-05-09T05:59:38.212Z,2840.00
2019-05-09T06:00:35.122Z,2984.00
2019-05-09T06:01:35.091Z,3204.00
2019-05-09T06:02:35.130Z,3512.00
2019-05-09T06:03:37.497Z,3676.00
2019-05-09T06:04:34.996Z,3768.00
2019-05-09T06:05:34.964Z,3804.00
2019-05-09T06:06:37.348Z,3904.00
2019-05-09T06:07:34.894Z,4028.00
2019-05-09T06:08:34.865Z,4172.00
2019-05-09T06:09:34.828Z,4296.00
2019-05-09T06:10:34.804Z,4400.00
2019-05-09T06:11:34.769Z,4344.00
2019-05-09T06:12:34.732Z,4324.00
2019-05-09T06:13:34.704Z,4324.00
2019-05-09T06:14:34.677Z,4260.00
2019-05-09T06:15:34.649Z,4160.00
2019-05-09T06:16:34.609Z,4104.00
2019-05-09T06:17:34.591Z,4016.00
2019-05-09T06:18:34.544Z,3956.00
2019-05-09T06:19:34.505Z,4052.00
2019-05-09T06:20:34.472Z,4488.00
2019-05-09T06:21:34.441Z,4192.00
2019-05-09T06:22:34.420Z,4552.00
2019-05-09T06:23:34.381Z,4640.00
2019-05-09T06:24:34.351Z,4684.00
2019-05-09T06:25:34.329Z,4176.00
2019-05-09T06:26:34.285Z,4660.00
2019-05-09T06:27:34.255Z,4264.00
2019-05-09T06:28:34.236Z,4396.00
2019-05-09T06:29:34.187Z,4468.00
2019-05-09T06:30:34.278Z,4536.00
2019-05-09T06:31:34.127Z,4616.00
2019-05-09T06:32:34.091Z,4468.00
2019-05-09T06:33:34.090Z,4252.00
2019-05-09T06:34:34.041Z,4084.00
2019-05-09T06:35:33.993Z,3868.00
2019-05-09T06:36:33.966Z,3748.00
2019-05-09T06:37:33.936Z,3988.00
2019-05-09T06:38:33.903Z,4164.00
2019-05-09T06:39:33.869Z,4216.00
2019-05-09T06:40:33.841Z,4060.00
2019-05-09T06:41:33.937Z,4204.00
2019-05-09T06:42:33.778Z,4336.00
2019-05-09T06:43:33.746Z,4592.00
2019-05-09T06:44:33.713Z,4780.00
2019-05-09T06:45:33.683Z,4844.00
2019-05-09T06:46:33.766Z,4856.00
2019-05-09T06:47:33.623Z,4676.00
2019-05-09T06:48:33.594Z,4500.00
2019-05-09T06:49:33.557Z,4228.00
2019-05-09T06:50:33.525Z,4168.00
2019-05-09T06:51:33.601Z,4116.00
2019-05-09T06:52:33.459Z,3976.00
2019-05-09T06:53:33.427Z,3856.00
2019-05-09T06:54:33.392Z,3744.00
2019-05-09T06:55:33.373Z,3700.00
2019-05-09T06:56:35.006Z,3768.00
2019-05-09T06:57:33.300Z,3656.00
2019-05-09T06:58:33.267Z,3432.00
2019-05-09T06:59:33.240Z,3428.00
2019-05-09T07:00:33.208Z,3268.00
2019-05-09T07:01:33.177Z,3344.00
2019-05-09T07:02:33.144Z,3492.00
2019-05-09T07:03:33.105Z,3580.00
2019-05-09T07:04:33.078Z,3512.00
2019-05-09T07:05:33.047Z,3500.00
2019-05-09T07:06:33.012Z,3592.00
2019-05-09T07:07:32.988Z,3664.00
2019-05-09T07:08:32.950Z,3628.00
2019-05-09T07:09:32.920Z,3544.00
2019-05-09T07:10:32.888Z,3644.00
2019-05-09T07:11:32.852Z,3680.00
2019-05-09T07:12:32.832Z,3728.00
2019-05-09T07:13:32.802Z,3688.00
2019-05-09T07:14:34.783Z,3656.00
2019-05-09T07:15:32.739Z,3632.00
2019-05-09T07:16:32.701Z,3596.00
2019-05-09T07:17:32.671Z,3540.00
2019-05-09T07:18:32.688Z,3380.00
2019-05-09T07:19:32.610Z,3368.00
2019-05-09T07:20:32.575Z,3284.00
2019-05-09T07:21:32.539Z,3324.00
2019-05-09T07:22:32.518Z,3324.00
2019-05-09T07:23:32.668Z,3492.00
2019-05-09T07:24:32.452Z,3352.00
2019-05-09T07:25:32.419Z,3492.00
2019-05-09T07:26:32.387Z,3548.00
2019-05-09T07:27:32.354Z,3556.00
2019-05-09T07:28:32.386Z,3564.00
2019-05-09T07:29:32.294Z,3448.00
2019-05-09T07:30:32.259Z,3448.00
2019-05-09T07:31:32.220Z,3292.00
2019-05-09T07:32:32.200Z,3408.00
2019-05-09T07:33:32.159Z,3200.00
2019-05-09T07:34:32.132Z,3176.00
2019-05-09T07:35:32.104Z,3148.00
2019-05-09T07:36:32.068Z,3348.00
2019-05-09T07:37:32.037Z,3488.00
2019-05-09T07:38:31.999Z,3552.00
2019-05-09T07:39:31.969Z,3668.00
2019-05-09T07:40:31.945Z,3692.00
2019-05-09T07:41:33.679Z,3768.00
2019-05-09T07:42:31.874Z,3764.00
2019-05-09T07:43:31.851Z,3772.00
2019-05-09T07:44:45.373Z,3784.00
2019-05-09T07:45:31.777Z,3684.00
2019-05-09T07:46:31.755Z,3700.00
2019-05-09T07:47:31.719Z,3848.00
2019-05-09T07:48:31.682Z,3944.00
2019-05-09T07:49:31.654Z,3932.00
2019-05-09T07:50:31.625Z,3960.00
2019-05-09T07:51:31.599Z,4016.00
2019-05-09T07:52:31.559Z,4048.00
2019-05-09T07:53:31.526Z,4140.00
2019-05-09T07:54:31.502Z,4256.00
2019-05-09T07:55:31.466Z,4396.00
2019-05-09T07:56:31.431Z,4728.00
2019-05-09T07:57:31.407Z,5196.00
2019-05-09T07:58:31.374Z,5708.00
2019-05-09T07:59:31.343Z,5912.00
2019-05-09T08:00:31.313Z,5884.00
2019-05-09T08:01:31.281Z,5920.00
2019-05-09T08:02:31.295Z,6064.00
2019-05-09T08:03:31.221Z,6204.00
2019-05-09T08:04:31.225Z,6168.00
2019-05-09T08:05:31.154Z,5716.00
2019-05-09T08:06:31.123Z,5688.00
2019-05-09T08:07:31.089Z,5480.00
2019-05-09T08:08:31.068Z,5204.00
2019-05-09T08:09:31.032Z,5092.00
2019-05-09T08:10:33.235Z,4748.00
2019-05-09T08:11:32.366Z,4928.00
2019-05-09T08:12:30.950Z,4856.00
2019-05-09T08:13:30.909Z,4884.00
2019-05-09T08:14:30.882Z,4840.00
2019-05-09T08:15:30.850Z,4768.00
2019-05-09T08:16:30.816Z,4788.00
2019-05-09T08:17:30.859Z,4964.00
2019-05-09T08:18:30.777Z,4208.00
2019-05-09T08:19:30.787Z,5632.00
2019-05-09T08:20:30.774Z,5832.00
2019-05-09T08:21:30.664Z,5756.00
2019-05-09T08:22:32.548Z,7036.00
2019-05-09T08:23:30.607Z,8456.00
2019-05-09T08:24:30.578Z,8580.00
2019-05-09T08:25:30.606Z,7628.00
2019-05-09T08:26:30.555Z,7968.00
2019-05-09T08:27:30.536Z,7592.00
2019-05-09T08:28:30.514Z,7456.00
2019-05-09T08:29:30.419Z,7024.00
2019-05-09T08:30:35.820Z,7296.00
2019-05-09T08:31:30.365Z,8776.00
2019-05-09T08:32:30.343Z,8068.00
2019-05-09T08:33:30.297Z,7652.00
2019-05-09T08:34:30.278Z,7792.00
2019-05-09T08:35:30.239Z,6288.00
2019-05-09T08:36:30.217Z,6824.00
2019-05-09T08:37:30.182Z,6704.00
2019-05-09T08:38:30.154Z,5992.00
2019-05-09T08:39:30.121Z,5520.00
2019-05-09T08:40:30.098Z,6076.00
2019-05-09T08:41:30.067Z,6592.00
2019-05-09T08:42:30.045Z,7600.00
2019-05-09T08:43:30.004Z,7128.00
2019-05-09T08:44:31.325Z,7520.00
2019-05-09T08:45:31.569Z,7012.00
2019-05-09T08:46:29.910Z,7256.00
2019-05-09T08:47:29.882Z,5516.00
2019-05-09T08:48:29.851Z,5564.00
2019-05-09T08:49:29.830Z,4924.00
2019-05-09T08:50:29.850Z,5964.00
2019-05-09T08:51:36.952Z,4688.00
2019-05-09T08:52:29.741Z,4756.00
2019-05-09T08:53:29.710Z,5260.00
2019-05-09T08:54:29.686Z,4492.00
2019-05-09T08:55:29.661Z,6448.00
2019-05-09T08:56:29.616Z,6560.00
2019-05-09T08:57:29.590Z,6460.00
2019-05-09T08:58:29.563Z,5128.00
2019-05-09T08:59:29.527Z,5912.00
2019-05-09T09:00:29.494Z,8744.00
2019-05-09T09:01:47.681Z,8612.00
2019-05-09T09:02:29.436Z,7976.00
2019-05-09T09:03:29.414Z,6888.00
2019-05-09T09:04:29.564Z,7016.00
2019-05-09T09:05:29.347Z,8884.00
2019-05-09T09:06:29.319Z,9008.00
2019-05-09T09:07:29.824Z,9380.00
2019-05-09T09:08:29.264Z,9548.00
2019-05-09T09:09:29.230Z,8200.00
2019-05-09T09:10:29.321Z,6796.00
2019-05-09T09:11:29.180Z,6760.00
2019-05-09T09:12:34.193Z,6316.00
2019-05-09T09:13:29.119Z,6056.00
2019-05-09T09:14:29.089Z,6460.00
2019-05-09T09:15:55.778Z,7432.00
2019-05-09T09:16:29.022Z,7928.00
2019-05-09T09:17:29.008Z,7808.00
2019-05-09T09:18:28.968Z,8044.00
2019-05-09T09:19:28.940Z,8240.00
2019-05-09T09:20:29.092Z,8392.00
2019-05-09T09:21:28.891Z,8760.00
2019-05-09T09:22:28.852Z,8040.00
2019-05-09T09:23:43.194Z,8120.00
2019-05-09T09:24:28.788Z,7744.00
2019-05-09T09:25:28.879Z,7568.00
2019-05-09T09:26:28.730Z,7384.00
2019-05-09T09:27:28.705Z,6696.00
2019-05-09T09:28:28.674Z,9280.00
2019-05-09T09:29:28.695Z,9452.00
2019-05-09T09:30:29.465Z,6872.00
2019-05-09T09:31:28.698Z,7600.00
2019-05-09T09:32:28.614Z,7360.00
2019-05-09T09:33:28.531Z,9024.00
2019-05-09T09:34:30.008Z,8416.00
2019-05-09T09:35:28.499Z,8524.00
2019-05-09T09:36:28.479Z,9120.00
2019-05-09T09:37:43.997Z,8544.00
2019-05-09T09:38:28.393Z,8236.00
2019-05-09T09:39:31.196Z,7912.00
2019-05-09T09:40:28.335Z,8396.00
2019-05-09T09:41:28.831Z,8836.00
2019-05-09T09:42:28.495Z,8772.00
2019-05-09T09:43:28.287Z,9160.00
2019-05-09T09:44:28.823Z,9416.00
2019-05-09T09:45:28.346Z,9508.00
2019-05-09T09:46:28.697Z,9760.00
2019-05-09T09:47:28.716Z,10000.00
2019-05-09T09:48:28.516Z,10036.00
2019-05-09T09:49:29.272Z,10084.00
2019-05-09T09:50:28.043Z,10100.00
2019-05-09T09:51:28.013Z,10000.00
2019-05-09T09:52:29.320Z,9932.00
2019-05-09T09:53:27.999Z,9956.00
2019-05-09T09:54:28.225Z,9620.00
2019-05-09T09:55:28.041Z,10164.00
2019-05-09T09:56:28.370Z,8972.00
2019-05-09T09:57:28.875Z,8776.00
2019-05-09T09:58:27.827Z,8260.00
2019-05-09T09:59:28.286Z,8112.00
2019-05-09T10:00:27.765Z,8412.00
2019-05-09T10:01:28.824Z,8672.00
2019-05-09T10:02:28.083Z,8612.00
2019-05-09T10:03:27.688Z,8860.00
2019-05-09T10:04:28.411Z,9168.00
2019-05-09T10:05:27.855Z,9924.00
2019-05-09T10:06:28.434Z,10344.00
2019-05-09T10:07:28.009Z,9372.00
2019-05-09T10:08:27.551Z,8272.00
2019-05-09T10:09:27.509Z,7688.00
2019-05-09T10:10:28.666Z,7772.00
2019-05-09T10:11:28.598Z,8140.00
2019-05-09T10:12:28.552Z,8128.00
2019-05-09T10:13:28.596Z,7932.00
2019-05-09T10:14:28.442Z,7528.00
2019-05-09T10:15:28.194Z,7048.00
2019-05-09T10:16:32.333Z,6840.00
2019-05-09T10:17:28.105Z,6688.00
2019-05-09T10:18:27.736Z,8836.00
2019-05-09T10:19:27.828Z,8968.00
2019-05-09T10:20:29.231Z,8156.00
2019-05-09T10:21:27.661Z,8672.00
2019-05-09T10:22:27.332Z,9116.00
2019-05-09T10:23:27.120Z,9452.00
2019-05-09T10:24:28.101Z,9520.00
2019-05-09T10:25:27.646Z,9488.00
2019-05-09T10:26:28.395Z,9328.00
2019-05-09T10:27:28.375Z,9292.00
2019-05-09T10:28:30.148Z,9368.00
2019-05-09T10:29:27.925Z,8732.00
2019-05-09T10:30:28.536Z,7828.00
2019-05-09T10:31:28.318Z,7548.00
2019-05-09T10:32:28.883Z,7516.00
2019-05-09T10:33:28.025Z,7544.00
2019-05-09T10:34:28.786Z,7648.00
2019-05-09T10:35:27.916Z,7776.00
2019-05-09T10:36:27.883Z,8132.00
2019-05-09T10:37:26.739Z,8680.00
2019-05-09T10:38:27.984Z,9108.00
2019-05-09T10:39:27.667Z,9512.00
2019-05-09T10:40:28.131Z,9476.00
2019-05-09T10:41:26.632Z,8980.00
2019-05-09T10:42:28.643Z,8644.00
2019-05-09T10:43:35.932Z,8752.00
2019-05-09T10:44:28.398Z,8496.00
2019-05-09T10:45:26.519Z,9512.00
2019-05-09T10:46:39.114Z,8824.00
2019-05-09T10:47:27.295Z,10668.00
2019-05-09T10:48:28.284Z,11640.00
2019-05-09T10:49:26.415Z,11988.00
2019-05-09T10:50:32.846Z,11156.00
2019-05-09T10:51:26.356Z,9816.00
2019-05-09T10:52:28.368Z,9448.00
2019-05-09T10:53:28.376Z,9140.00
2019-05-09T10:54:27.885Z,8764.00
2019-05-09T10:55:28.400Z,8596.00
2019-05-09T10:56:28.077Z,8916.00
2019-05-09T10:57:30.928Z,10320.00
2019-05-09T10:58:28.004Z,10368.00
2019-05-09T10:59:26.139Z,10704.00
2019-05-09T11:00:28.739Z,10832.00
2019-05-09T11:01:26.159Z,10656.00
2019-05-09T11:02:27.923Z,10476.00
2019-05-09T11:03:26.026Z,10292.00
2019-05-09T11:04:28.631Z,10116.00
2019-05-09T11:05:27.751Z,9496.00
2019-05-09T11:06:28.459Z,9844.00
2019-05-09T11:07:25.916Z,10028.00
2019-05-09T11:08:26.335Z,9324.00
2019-05-09T11:09:28.864Z,9920.00
2019-05-09T11:10:30.128Z,9356.00
2019-05-09T11:11:28.189Z,8876.00
2019-05-09T11:12:27.615Z,9004.00
2019-05-09T11:13:28.519Z,9108.00
2019-05-09T11:14:36.179Z,9264.00
2019-05-09T11:15:25.699Z,9240.00
2019-05-09T11:16:39.673Z,9840.00
2019-05-09T11:17:25.654Z,10248.00
2019-05-09T11:18:25.631Z,10320.00
2019-05-09T11:19:25.605Z,8704.00
2019-05-09T11:20:28.226Z,8780.00
2019-05-09T11:21:28.105Z,9340.00
2019-05-09T11:22:25.526Z,9092.00
2019-05-09T11:23:25.489Z,9204.00
2019-05-09T11:24:40.576Z,8780.00
2019-05-09T11:25:27.645Z,9172.00
2019-05-09T11:26:28.159Z,9472.00
2019-05-09T11:27:28.109Z,10912.00
2019-05-09T11:28:25.419Z,10808.00
2019-05-09T11:29:25.338Z,10828.00
2019-05-09T11:30:25.312Z,9784.00
2019-05-09T11:31:25.283Z,9064.00
2019-05-09T11:32:27.455Z,8348.00
2019-05-09T11:33:27.545Z,7968.00
2019-05-09T11:34:25.201Z,8464.00
2019-05-09T11:35:25.177Z,7992.00
2019-05-09T11:36:25.143Z,8204.00
2019-05-09T11:37:25.117Z,8320.00
2019-05-09T11:38:32.039Z,8712.00
2019-05-09T11:39:35.586Z,8492.00
2019-05-09T11:40:25.039Z,7848.00
2019-05-09T11:41:25.013Z,7472.00
2019-05-09T11:42:24.988Z,7052.00
2019-05-09T11:43:24.961Z,7232.00
2019-05-09T11:44:27.150Z,7884.00
2019-05-09T11:45:24.911Z,8536.00
2019-05-09T11:46:24.878Z,8660.00
2019-05-09T11:47:33.626Z,8504.00
2019-05-09T11:48:24.826Z,8300.00
2019-05-09T11:49:24.795Z,8172.00
2019-05-09T11:50:24.773Z,8128.00
2019-05-09T11:51:24.740Z,8244.00
2019-05-09T11:52:24.717Z,8436.00
2019-05-09T11:53:24.697Z,8544.00
2019-05-09T11:54:24.669Z,8312.00
2019-05-09T11:55:32.706Z,7576.00
2019-05-09T11:56:24.613Z,7184.00
2019-05-09T11:57:27.645Z,7116.00
2019-05-09T11:58:24.550Z,7272.00
2019-05-09T11:59:24.527Z,7424.00
2019-05-09T12:00:24.513Z,7264.00
2019-05-09T12:01:24.474Z,6912.00
2019-05-09T12:02:24.491Z,6696.00
2019-05-09T12:03:24.474Z,6744.00
2019-05-09T12:04:24.394Z,6868.00
2019-05-09T12:05:24.383Z,6872.00
2019-05-09T12:06:24.341Z,6812.00
2019-05-09T12:07:24.305Z,6676.00
2019-05-09T12:08:24.276Z,6480.00
2019-05-09T12:09:24.298Z,6472.00
2019-05-09T12:10:24.227Z,6524.00
2019-05-09T12:11:24.203Z,6756.00
2019-05-09T12:12:24.164Z,7212.00
2019-05-09T12:13:24.139Z,7684.00
2019-05-09T12:14:24.117Z,8232.00
2019-05-09T12:15:24.097Z,9156.00
2019-05-09T12:16:24.056Z,9876.00
2019-05-09T12:17:24.038Z,10252.00
2019-05-09T12:18:24.005Z,10480.00
2019-05-09T12:19:23.979Z,11184.00
2019-05-09T12:20:23.975Z,12416.00
2019-05-09T12:21:23.931Z,13100.00
2019-05-09T12:22:23.911Z,13216.00
2019-05-09T12:23:23.942Z,13712.00
2019-05-09T12:24:23.881Z,13048.00
2019-05-09T12:25:23.889Z,12988.00
2019-05-09T12:26:23.849Z,13276.00